Time;durP1;ratioP1;P1;durP2;ratioP2;P2;SDS_P1;SDS_P2;PMS_P1;PMS_P2;Temp;Humidity;BMP_temperature;BMP_pressure;BME280_temperature;BME280_humidity;BME280_pressure;Samples;Min_cycle;Max_cycle;Signal;HPM_P1;HPM_P2
2022/08/11 00:02:02;;;;;;;3.33;3.13;;;15.40;99.90;;;;;;5055239;28;20401;-74
2022/08/11 00:04:35;;;;;;;3.17;2.97;;;15.40;99.90;;;;;;5054984;28;20417;-74
2022/08/11 00:07:03;;;;;;;3.17;2.97;;;15.40;99.90;;;;;;5054101;28;20405;-74
2022/08/11 00:09:36;;;;;;;4.03;2.80;;;15.40;99.90;;;;;;5054804;28;20464;-75
2022/08/11 00:12:03;;;;;;;3.33;3.07;;;15.40;99.90;;;;;;5054200;28;20410;-69
2022/08/11 00:14:30;;;;;;;2.90;2.70;;;15.30;99.90;;;;;;5053498;28;20429;-75
2022/08/11 00:17:15;;;;;;;3.73;3.43;;;15.30;99.90;;;;;;5054063;28;20406;-68
2022/08/11 00:19:43;;;;;;;4.87;2.80;;;15.30;99.90;;;;;;5054784;28;20409;-74
2022/08/11 00:22:10;;;;;;;4.17;3.33;;;15.30;99.90;;;;;;5054772;28;20410;-73
2022/08/11 00:24:39;;;;;;;3.17;2.87;;;15.30;99.90;;;;;;5054666;28;20429;-69
2022/08/11 00:27:05;;;;;;;8.83;3.40;;;15.20;99.90;;;;;;5053528;28;20907;-68
2022/08/11 00:29:31;;;;;;;3.57;3.20;;;15.20;99.90;;;;;;5053802;28;20543;-74
2022/08/11 00:32:00;;;;;;;3.30;2.90;;;15.20;99.90;;;;;;5053296;28;20479;-74
2022/08/11 00:34:32;;;;;;;3.40;3.10;;;15.10;99.90;;;;;;5054421;28;20416;-68
2022/08/11 00:37:02;;;;;;;3.30;3.00;;;15.10;99.90;;;;;;5053710;28;20409;-74
2022/08/11 00:39:30;;;;;;;5.80;3.40;;;15.00;99.90;;;;;;5054423;28;20413;-68
2022/08/11 00:42:14;;;;;;;4.50;3.50;;;15.00;99.90;;;;;;5054367;28;20408;-68
2022/08/11 00:45:01;;;;;;;7.77;3.30;;;15.00;99.90;;;;;;5054131;28;20463;-71
2022/08/11 00:47:41;;;;;;;3.57;2.93;;;15.00;99.90;;;;;;5052588;28;20436;-68
2022/08/11 00:50:29;;;;;;;3.50;3.20;;;15.00;99.90;;;;;;5054181;28;20474;-69
2022/08/11 00:53:19;;;;;;;4.87;3.43;;;15.00;99.90;;;;;;5053542;28;20463;-68
2022/08/11 00:56:35;;;;;;;3.43;3.10;;;14.90;99.90;;;;;;5053956;28;20418;-69
2022/08/11 00:59:37;;;;;;;3.13;2.93;;;14.90;99.90;;;;;;5053059;28;20451;-69
2022/08/11 01:02:19;;;;;;;3.40;3.10;;;14.80;99.90;;;;;;5054004;28;20902;-68
2022/08/11 01:05:24;;;;;;;3.60;3.40;;;14.70;99.90;;;;;;5052883;28;20615;-69
2022/08/11 01:08:19;;;;;;;3.70;3.47;;;14.60;99.90;;;;;;5052861;28;20433;-74
2022/08/11 01:11:14;;;;;;;6.20;3.40;;;14.60;99.90;;;;;;5053645;28;20457;-74
2022/08/11 01:14:05;;;;;;;2.77;2.50;;;14.60;99.90;;;;;;5053471;28;20425;-68
2022/08/11 01:16:36;;;;;;;3.47;3.17;;;14.70;99.90;;;;;;5052818;28;20397;-74
2022/08/11 01:19:40;;;;;;;3.90;3.60;;;14.60;99.90;;;;;;5053598;28;20425;-74
2022/08/11 01:22:18;;;;;;;3.53;3.07;;;14.60;99.90;;;;;;5053481;28;20410;-72
2022/08/11 01:25:08;;;;;;;4.23;3.53;;;14.60;99.90;;;;;;5052872;28;20402;-72
2022/08/11 01:27:53;;;;;;;3.20;2.90;;;14.60;99.90;;;;;;5052788;28;20426;-67
2022/08/11 01:31:03;;;;;;;4.13;3.73;;;14.50;99.90;;;;;;5053546;28;20452;-74
2022/08/11 01:34:06;;;;;;;3.73;3.30;;;14.60;99.90;;;;;;5052925;28;20413;-67
2022/08/11 01:37:05;;;;;;;5.30;3.10;;;14.50;99.90;;;;;;5052772;28;20753;-67
2022/08/11 01:39:49;;;;;;;3.40;3.10;;;14.50;99.90;;;;;;5053482;28;20513;-73
2022/08/11 01:46:04;;;;;;;2.70;2.50;;;14.50;99.90;;;;;;5053331;28;20456;-74
2022/08/11 01:49:12;;;;;;;3.67;3.30;;;14.40;99.90;;;;;;5053132;28;20433;-74
2022/08/11 01:52:01;;;;;;;3.80;3.40;;;14.40;99.90;;;;;;5052011;28;20995;-74
2022/08/11 01:54:50;;;;;;;3.20;2.90;;;14.40;99.90;;;;;;5053110;28;20405;-73
2022/08/11 01:57:25;;;;;;;3.10;2.80;;;14.40;99.90;;;;;;5051041;28;20413;-73
2022/08/11 01:59:59;;;;;;;3.20;3.00;;;14.40;99.90;;;;;;5052157;28;20416;-67
2022/08/11 02:02:52;;;;;;;7.07;3.20;;;14.40;99.90;;;;;;5053011;28;20408;-68
2022/08/11 02:05:39;;;;;;;3.33;3.00;;;14.40;99.90;;;;;;5052761;28;20424;-73
2022/08/11 02:08:20;;;;;;;3.10;2.73;;;14.30;99.90;;;;;;5051932;28;20806;-66
2022/08/11 02:13:50;;;;;;;4.50;4.10;;;14.30;99.90;;;;;;5053200;28;20897;-74
2022/08/11 02:16:55;;;;;;;3.60;3.30;;;14.30;99.90;;;;;;5052063;28;20409;-68
2022/08/11 02:25:44;;;;;;;3.50;3.27;;;14.20;99.90;;;;;;5052754;28;20450;-74
2022/08/11 02:28:28;;;;;;;3.80;3.50;;;14.20;99.90;;;;;;5051989;28;20508;-67
2022/08/11 02:34:25;;;;;;;3.20;3.00;;;14.10;99.90;;;;;;5052718;28;20412;-74
2022/08/11 02:37:14;;;;;;;4.13;3.40;;;14.20;99.90;;;;;;5051570;28;20937;-72
2022/08/11 02:40:02;;;;;;;4.30;3.90;;;14.00;99.90;;;;;;5052292;28;20408;-74
2022/08/11 02:42:45;;;;;;;3.33;3.03;;;14.00;99.90;;;;;;5052667;28;20409;-73
2022/08/11 02:45:11;;;;;;;3.27;3.07;;;14.00;99.90;;;;;;5052537;28;20417;-73
2022/08/11 02:51:02;;;;;;;6.77;2.80;;;14.00;99.90;;;;;;5052527;28;20296;-67
2022/08/11 02:53:49;;;;;;;3.30;2.90;;;14.00;99.90;;;;;;5052536;28;21004;-67
2022/08/11 02:56:45;;;;;;;3.77;3.10;;;14.00;99.90;;;;;;5051842;28;20401;-67
2022/08/11 03:02:13;;;;;;;4.00;3.70;;;13.90;99.90;;;;;;5052478;28;20408;-66
2022/08/11 03:04:59;;;;;;;3.40;3.07;;;13.90;99.90;;;;;;5052393;28;20397;-67
2022/08/11 03:07:54;;;;;;;3.60;2.90;;;13.90;99.90;;;;;;5051396;28;20520;-73
2022/08/11 03:10:44;;;;;;;2.90;2.70;;;13.90;99.90;;;;;;5052358;28;20461;-73
2022/08/11 03:16:45;;;;;;;3.07;2.87;;;13.80;99.90;;;;;;5051702;28;20917;-67
2022/08/11 03:19:17;;;;;;;3.40;3.00;;;13.80;99.90;;;;;;5055007;28;20840;-74
2022/08/11 03:22:08;;;;;;;3.47;3.17;;;13.80;99.90;;;;;;5055883;28;20416;-73
2022/08/11 03:24:54;;;;;;;3.60;3.33;;;13.80;99.90;;;;;;5055920;28;20409;-73
2022/08/11 03:27:40;;;;;;;3.80;3.40;;;13.80;99.90;;;;;;5054827;28;21146;-67
2022/08/11 03:30:17;;;;;;;3.70;3.40;;;13.80;99.90;;;;;;5054440;28;20463;-67
2022/08/11 03:36:09;;;;;;;3.40;3.10;;;13.70;99.90;;;;;;5055674;28;20951;-69
2022/08/11 03:39:07;;;;;;;3.37;3.17;;;13.70;99.90;;;;;;5054788;28;20447;-73
2022/08/11 03:42:05;;;;;;;3.70;3.40;;;13.70;99.90;;;;;;5055655;28;20386;-67
2022/08/11 03:45:00;;;;;;;3.40;2.97;;;13.70;99.90;;;;;;5055640;28;20413;-66
2022/08/11 03:47:44;;;;;;;3.33;3.13;;;13.70;99.90;;;;;;5054448;28;20421;-66
2022/08/11 03:50:54;;;;;;;3.10;2.80;;;13.70;99.90;;;;;;5055262;28;21088;-73
2022/08/11 03:53:56;;;;;;;4.07;3.70;;;13.70;99.90;;;;;;5036451;28;20444;-74
2022/08/11 03:56:59;;;;;;;3.70;3.40;;;13.70;99.90;;;;;;5051087;28;20417;-68
2022/08/11 03:59:53;;;;;;;3.17;2.93;;;13.70;99.90;;;;;;5055167;28;20511;-73
2022/08/11 04:02:49;;;;;;;3.80;3.50;;;13.60;99.90;;;;;;5055247;28;20383;-74
2022/08/11 04:05:37;;;;;;;3.63;2.97;;;13.60;99.90;;;;;;5055149;28;20390;-74
2022/08/11 04:08:05;;;;;;;5.73;3.40;;;13.60;99.90;;;;;;5053967;28;20429;-73
2022/08/11 04:10:33;;;;;;;3.90;3.00;;;13.60;99.90;;;;;;5054798;28;20556;-73
2022/08/11 04:13:20;;;;;;;3.87;3.47;;;13.60;99.90;;;;;;5055010;28;20412;-67
2022/08/11 04:16:01;;;;;;;3.27;3.00;;;13.60;99.90;;;;;;5053862;28;20416;-73
2022/08/11 04:18:45;;;;;;;3.10;2.90;;;13.60;99.90;;;;;;5054747;28;20452;-73
2022/08/11 04:21:50;;;;;;;3.60;3.23;;;13.60;99.90;;;;;;5054786;28;20417;-73
2022/08/11 04:24:52;;;;;;;3.10;2.90;;;13.60;99.90;;;;;;5054104;28;20432;-73
2022/08/11 04:27:28;;;;;;;3.50;3.20;;;13.60;99.90;;;;;;5053715;28;20462;-67
2022/08/11 04:30:35;;;;;;;3.23;3.03;;;13.70;99.90;;;;;;5054514;28;20451;-67
2022/08/11 04:33:35;;;;;;;3.20;3.00;;;13.70;99.90;;;;;;5054331;28;20421;-68
2022/08/11 04:39:44;;;;;;;3.30;3.10;;;13.70;99.90;;;;;;5054471;28;20763;-74
2022/08/11 04:45:45;;;;;;;3.83;3.53;;;13.70;99.90;;;;;;5064114;28;20460;-68
2022/08/11 05:03:45;;;;;;;10.60;3.50;;;13.90;99.90;;;;;;5054131;28;20397;-74
2022/08/11 05:06:46;;;;;;;3.73;3.30;;;13.90;99.90;;;;;;5053211;28;20751;-67
2022/08/11 05:09:34;;;;;;;4.90;4.60;;;14.00;99.90;;;;;;5052698;28;20827;-73
2022/08/11 05:12:05;;;;;;;3.80;3.50;;;14.00;99.90;;;;;;5053903;28;21303;-67
2022/08/11 05:34:51;;;;;;;3.90;3.57;;;14.50;99.90;;;;;;5071462;28;20990;-72
2022/08/11 05:37:22;;;;;;;4.57;3.07;;;14.50;99.90;;;;;;5070168;28;20404;-73
2022/08/11 05:56:59;;;;;;;3.80;3.40;;;15.10;99.90;;;;;;5070114;28;20404;-66
2022/08/11 05:59:29;;;;;;;3.93;3.63;;;15.20;99.90;;;;;;5068026;28;20437;-65
2022/08/11 06:02:03;;;;;;;3.00;2.80;;;15.30;99.90;;;;;;5052403;28;20412;-66
2022/08/11 06:04:29;;;;;;;5.67;3.07;;;15.40;99.90;;;;;;5052637;28;20427;-66
2022/08/11 06:07:07;;;;;;;4.03;3.63;;;15.50;99.90;;;;;;5051110;28;20402;-66
2022/08/11 06:09:36;;;;;;;3.90;3.60;;;15.70;99.90;;;;;;5052918;28;20464;-66
2022/08/11 06:12:15;;;;;;;4.00;3.20;;;15.80;99.90;;;;;;5052888;28;20396;-66
2022/08/11 06:14:43;;;;;;;4.73;3.60;;;15.90;99.90;;;;;;5052959;28;20393;-65
2022/08/11 06:17:10;;;;;;;4.70;3.97;;;16.00;99.90;;;;;;5051795;28;20406;-72
2022/08/11 06:19:41;;;;;;;2.90;2.70;;;16.10;99.90;;;;;;5052394;28;20810;-66
2022/08/11 06:22:10;;;;;;;3.77;2.87;;;16.20;99.90;;;;;;5051293;28;20409;-66
2022/08/11 06:24:41;;;;;;;5.10;3.10;;;16.20;99.90;;;;;;5051552;28;20949;-72
2022/08/11 06:27:08;;;;;;;3.73;3.10;;;16.30;99.90;;;;;;5051711;28;20409;-71
2022/08/11 06:29:44;;;;;;;4.13;2.80;;;16.50;99.90;;;;;;5051443;28;20515;-66
2022/08/11 06:32:12;;;;;;;3.80;3.47;;;16.50;99.90;;;;;;5052741;28;20492;-72
2022/08/11 06:34:58;;;;;;;3.20;3.00;;;16.60;99.90;;;;;;5052682;28;20821;-67
2022/08/11 06:37:42;;;;;;;3.40;3.10;;;16.70;99.90;;;;;;5050677;28;20433;-72
2022/08/11 06:40:10;;;;;;;3.33;3.10;;;16.80;99.90;;;;;;5051775;28;20405;-67
2022/08/11 06:43:01;;;;;;;3.40;3.10;;;16.80;99.90;;;;;;5052676;28;20401;-66
2022/08/11 06:45:32;;;;;;;3.30;2.90;;;16.90;99.90;;;;;;5052503;28;20749;-65
2022/08/11 06:48:00;;;;;;;4.27;3.30;;;17.00;99.90;;;;;;5051582;28;20464;-66
2022/08/11 06:53:16;;;;;;;3.37;3.17;;;17.30;99.90;;;;;;5056219;28;20496;-66
2022/08/11 07:01:46;;;;;;;4.03;3.30;;;17.70;99.90;;;;;;5074463;28;20459;-65
2022/08/11 07:04:19;;;;;;;3.10;2.80;;;17.90;99.90;;;;;;5054931;28;20426;-66
2022/08/11 07:15:59;;;;;;;3.20;2.90;;;18.60;99.90;;;;;;5055447;28;20468;-73
2022/08/11 07:30:03;;;;;;;4.20;3.80;;;19.70;14.20;;;;;;5055858;28;20514;-66
2022/08/11 07:32:37;;;;;;;4.03;3.67;;;19.80;1.00;;;;;;5054388;28;20906;-66
2022/08/11 07:35:12;;;;;;;3.70;2.93;;;19.90;1.00;;;;;;5055630;28;20822;-66
2022/08/11 07:37:46;;;;;;;2.37;2.00;;;20.00;1.00;;;;;;5054055;28;20527;-67
2022/08/11 07:40:13;;;;;;;2.20;2.00;;;20.10;1.00;;;;;;5055759;28;20400;-72
2022/08/11 07:42:45;;;;;;;2.00;1.90;;;20.20;1.00;;;;;;5055571;28;20402;-66
2022/08/11 07:53:28;;;;;;;2.43;2.00;;;20.80;1.00;;;;;;5055404;28;20936;-67
2022/08/11 07:55:57;;;;;;;3.13;2.50;;;20.90;1.00;;;;;;5053363;28;20409;-71
2022/08/11 08:17:50;;;;;;;2.60;2.30;;;21.90;1.00;;;;;;5054284;28;20506;-67
2022/08/11 08:20:18;;;;;;;2.40;2.20;;;22.10;1.00;;;;;;5053571;28;20424;-68
2022/08/11 08:22:48;;;;;;;3.10;2.43;;;22.20;1.00;;;;;;5054790;28;20474;-68
2022/08/11 08:25:16;;;;;;;3.87;2.80;;;22.30;1.00;;;;;;5054670;28;20416;-74
2022/08/11 08:27:44;;;;;;;5.83;2.27;;;22.30;1.00;;;;;;5054105;28;20488;-74
2022/08/11 08:32:59;;;;;;;4.17;2.40;;;22.50;1.00;;;;;;5053794;28;20404;-66
2022/08/11 08:35:29;;;;;;;2.10;2.00;;;22.60;1.00;;;;;;5053375;28;20417;-68
2022/08/11 08:37:55;;;;;;;2.33;2.13;;;22.70;1.00;;;;;;5052533;28;20433;-75
2022/08/11 08:40:21;;;;;;;2.53;2.33;;;22.80;1.00;;;;;;5054386;28;20417;-75
2022/08/11 08:42:53;;;;;;;3.40;2.20;;;23.00;1.00;;;;;;5054441;28;20412;-75
2022/08/11 08:45:21;;;;;;;2.40;2.20;;;23.10;1.00;;;;;;5053058;28;20182;-75
2022/08/11 08:48:19;;;;;;;2.47;2.30;;;23.30;99.90;;;;;;5053579;28;20428;-69
2022/08/11 08:53:48;;;;;;;2.30;2.10;;;23.70;99.90;;;;;;5054543;28;20447;-75
2022/08/11 08:56:15;;;;;;;2.80;2.60;;;23.90;99.90;;;;;;5053537;28;20409;-76
2022/08/11 08:58:44;;;;;;;2.57;2.30;;;24.10;99.90;;;;;;5053915;28;20504;-76
2022/08/11 09:01:13;;;;;;;3.33;2.03;;;24.20;99.90;;;;;;5053086;28;20405;-75
2022/08/11 09:03:39;;;;;;;2.90;2.30;;;24.30;99.90;;;;;;5054152;28;20481;-68
2022/08/11 09:06:05;;;;;;;2.70;2.50;;;24.50;99.90;;;;;;5053295;28;20886;-75
2022/08/11 09:08:34;;;;;;;4.23;2.80;;;24.70;99.90;;;;;;5053656;28;20629;-68
2022/08/11 09:13:46;;;;;;;4.03;2.50;;;25.10;99.90;;;;;;5053726;28;20762;-75
2022/08/11 09:16:12;;;;;;;2.20;1.97;;;25.20;99.90;;;;;;5052916;28;20398;-68
2022/08/11 09:18:43;;;;;;;3.40;1.80;;;25.40;99.90;;;;;;5053516;28;20413;-69
2022/08/11 09:21:14;;;;;;;3.07;2.20;;;25.50;99.90;;;;;;5052389;28;20429;-68
2022/08/11 09:29:12;;;;;;;1.73;1.63;;;26.10;99.90;;;;;;5052749;28;20448;-68
2022/08/11 09:31:38;;;;;;;3.30;2.20;;;26.30;99.90;;;;;;5052292;28;20443;-76
2022/08/11 09:34:04;;;;;;;2.00;1.90;;;26.50;99.90;;;;;;5051154;28;20404;-76
2022/08/11 09:42:03;;;;;;;2.07;1.73;;;26.80;99.90;;;;;;5053183;28;20975;-68
2022/08/11 09:44:47;;;;;;;1.83;1.73;;;27.00;99.90;;;;;;5052792;28;20397;-76
2022/08/11 09:47:21;;;;;;;3.00;1.83;;;27.10;99.90;;;;;;5051998;28;20774;-75
2022/08/11 09:49:47;;;;;;;1.60;1.50;;;27.30;99.90;;;;;;5050449;28;20472;-75
2022/08/11 09:52:14;;;;;;;2.03;1.40;;;27.70;99.90;;;;;;5052935;28;20913;-69
2022/08/11 09:54:45;;;;;;;1.73;1.33;;;28.10;99.90;;;;;;5051827;28;20467;-77
2022/08/11 09:59:56;;;;;;;3.37;1.30;;;28.20;99.90;;;;;;5053059;28;20412;-69
2022/08/11 10:02:26;;;;;;;1.50;1.40;;;28.30;99.90;;;;;;5053071;28;20402;-77
2022/08/11 10:07:00;;;;;;;1.60;1.50;;;28.60;99.90;;;;;;5051785;28;20171;-70
2022/08/11 10:07:49;;;;;;;1.47;1.37;;;28.80;99.90;;;;;;5051309;28;20953;-70
2022/08/11 10:10:16;;;;;;;2.10;1.60;;;29.00;99.90;;;;;;5052725;28;20483;-73
2022/08/11 10:13:10;;;;;;;1.83;1.73;;;29.00;99.90;;;;;;5051753;28;20416;-77
2022/08/11 10:15:37;;;;;;;1.50;1.27;;;29.20;99.90;;;;;;5048505;28;20413;-70
2022/08/11 10:21:05;;;;;;;1.90;1.80;;;29.50;99.90;;;;;;5052935;28;20425;-76
2022/08/11 10:33:58;;;;;;;2.20;2.10;;;30.40;99.90;;;;;;5056763;28;20432;-69
2022/08/11 10:34:42;;;;;;;2.38;2.00;;;30.70;99.90;;;;;;5055955;28;20414;-74
2022/08/11 10:37:08;;;;;;;3.40;1.60;;;30.80;99.90;;;;;;5054792;28;20175;-70
2022/08/11 10:39:36;;;;;;;2.60;1.60;;;30.40;99.90;;;;;;5056650;28;20420;-75
2022/08/11 10:44:51;;;;;;;4.20;2.40;;;29.60;99.90;;;;;;5056674;28;20912;-68
2022/08/11 10:47:37;;;;;;;1.77;1.63;;;29.30;99.90;;;;;;5055571;28;20405;-68
2022/08/11 10:58:44;;;;;;;3.70;1.50;;;28.50;99.90;;;;;;5056046;28;20416;-75
2022/08/11 11:01:11;;;;;;;3.83;2.10;;;28.30;99.90;;;;;;5056079;28;20765;-76
2022/08/11 11:03:37;;;;;;;2.50;2.30;;;28.30;99.90;;;;;;5056112;28;20450;-76
2022/08/11 11:06:18;;;;;;;2.10;1.57;;;28.10;99.90;;;;;;5054200;28;20909;-69
2022/08/11 11:08:52;;;;;;;2.83;1.90;;;28.00;99.90;;;;;;5056061;28;20432;-76
2022/08/11 11:19:38;;;;;;;1.97;1.80;;;28.40;99.90;;;;;;5054943;28;20481;-68
2022/08/11 11:25:31;;;;;;;6.73;1.50;;;28.30;99.90;;;;;;5056220;28;20400;-76
2022/08/11 11:28:08;;;;;;;2.20;2.00;;;28.40;99.90;;;;;;5053917;28;20432;-70
2022/08/11 11:30:54;;;;;;;2.47;1.30;;;28.50;99.90;;;;;;5054406;28;20460;-73
2022/08/11 11:34:08;;;;;;;2.50;2.17;;;28.50;99.90;;;;;;5054417;28;20416;-70
2022/08/11 11:36:50;;;;;;;2.30;1.97;;;28.50;99.90;;;;;;5054395;28;20413;-75
2022/08/11 11:39:22;;;;;;;1.90;1.70;;;28.60;99.90;;;;;;5054731;28;20423;-71
2022/08/11 11:41:50;;;;;;;1.87;1.70;;;28.70;99.90;;;;;;5054700;28;20401;-71
2022/08/11 11:44:17;;;;;;;1.80;1.70;;;28.70;99.90;;;;;;5055617;28;20394;-77
2022/08/11 11:46:44;;;;;;;1.90;1.70;;;28.70;99.90;;;;;;5054655;28;20451;-77
2022/08/11 11:49:11;;;;;;;3.47;2.10;;;28.60;99.90;;;;;;5055408;28;20467;-76
2022/08/11 11:51:37;;;;;;;1.97;1.77;;;28.60;99.90;;;;;;5055406;28;20858;-77
2022/08/11 11:54:04;;;;;;;2.20;2.10;;;28.70;99.90;;;;;;5054019;28;20409;-71
2022/08/11 11:56:31;;;;;;;2.00;1.70;;;28.90;99.90;;;;;;5053748;28;20401;-76
2022/08/11 12:01:43;;;;;;;3.60;2.00;;;29.00;99.90;;;;;;5055537;28;20451;-76
2022/08/11 12:04:12;;;;;;;1.60;1.50;;;28.90;99.90;;;;;;5053878;28;20817;-77
2022/08/11 12:06:38;;;;;;;1.40;1.30;;;28.80;99.90;;;;;;5054282;28;20492;-77
2022/08/11 12:09:04;;;;;;;2.17;1.90;;;28.70;99.90;;;;;;5054886;28;20513;-77
2022/08/11 12:14:19;;;;;;;6.13;1.90;;;28.80;99.90;;;;;;5054129;28;20396;-76
2022/08/11 12:16:47;;;;;;;2.27;2.00;;;28.80;99.90;;;;;;5054118;28;20393;-71
2022/08/11 12:19:23;;;;;;;2.93;2.13;;;28.80;99.90;;;;;;5054915;28;20417;-77
2022/08/11 12:27:20;;;;;;;2.47;2.10;;;28.70;99.90;;;;;;5053857;28;20401;-71
2022/08/11 12:29:59;;;;;;;4.60;1.93;;;28.80;99.90;;;;;;5054722;28;20448;-76
2022/08/11 12:32:29;;;;;;;1.80;1.70;;;28.90;99.90;;;;;;5053735;28;20414;-72
2022/08/11 12:34:56;;;;;;;2.10;1.90;;;29.00;99.90;;;;;;5054610;28;20402;-77
2022/08/11 12:37:48;;;;;;;3.13;1.70;;;29.10;99.90;;;;;;5052339;28;20425;-77
2022/08/11 12:46:13;;;;;;;3.00;2.40;;;28.80;99.90;;;;;;5071258;28;20921;-72
2022/08/11 12:51:58;;;;;;;3.30;2.20;;;28.70;99.90;;;;;;5054123;28;20411;-77
2022/08/11 12:55:01;;;;;;;1.70;1.60;;;28.70;99.90;;;;;;5054233;28;20401;-72
2022/08/11 13:05:54;;;;;;;1.40;1.30;;;28.70;99.90;;;;;;5053915;28;20408;-75
2022/08/11 13:08:23;;;;;;;2.33;1.47;;;28.80;99.90;;;;;;5052116;28;20863;-77
2022/08/11 13:13:36;;;;;;;2.57;1.90;;;28.50;99.90;;;;;;5054080;28;20436;-71
2022/08/11 13:16:02;;;;;;;2.40;1.47;;;28.40;99.90;;;;;;5052894;28;20408;-73
2022/08/11 13:18:28;;;;;;;5.47;1.67;;;28.40;99.90;;;;;;5053713;28;20798;-77
2022/08/11 13:20:55;;;;;;;2.40;1.57;;;28.30;99.90;;;;;;5053718;28;20413;-71
2022/08/11 13:23:24;;;;;;;4.93;2.20;;;28.30;99.90;;;;;;5053606;28;20632;-76
2022/08/11 13:25:53;;;;;;;2.33;1.20;;;28.40;99.90;;;;;;5052655;28;20958;-76
2022/08/11 13:28:20;;;;;;;3.40;1.67;;;28.30;99.90;;;;;;5052893;28;20413;-77
2022/08/11 13:33:32;;;;;;;2.27;1.90;;;28.40;99.90;;;;;;5053645;28;20404;-71
2022/08/11 13:35:59;;;;;;;2.53;2.33;;;28.50;99.90;;;;;;5053206;28;20429;-77
2022/08/11 13:38:26;;;;;;;1.80;1.70;;;28.50;99.90;;;;;;5052091;28;20464;-71
2022/08/11 13:40:54;;;;;;;1.50;1.40;;;28.50;99.90;;;;;;5053240;28;20414;-76
2022/08/11 13:43:22;;;;;;;1.43;1.10;;;28.30;99.90;;;;;;5053183;28;20805;-70
2022/08/11 13:45:48;;;;;;;1.70;1.47;;;28.20;99.90;;;;;;5052101;28;20409;-76
2022/08/11 13:48:15;;;;;;;3.63;1.53;;;28.10;99.90;;;;;;5051432;28;20942;-77
2022/08/11 13:53:29;;;;;;;2.00;1.47;;;28.20;99.90;;;;;;5053505;28;20405;-71
2022/08/11 13:55:57;;;;;;;4.50;1.20;;;28.30;99.90;;;;;;5052938;28;20398;-76
2022/08/11 13:58:23;;;;;;;1.37;1.20;;;28.50;99.90;;;;;;5052040;28;20417;-76
2022/08/11 14:00:51;;;;;;;2.70;1.40;;;28.50;99.90;;;;;;5052585;28;20401;-71
2022/08/11 14:03:21;;;;;;;2.97;1.60;;;28.70;99.90;;;;;;5052553;28;20262;-70
2022/08/11 14:05:51;;;;;;;1.03;0.87;;;28.80;99.90;;;;;;5053017;28;20410;-70
2022/08/11 14:08:23;;;;;;;2.47;1.57;;;28.90;99.90;;;;;;5052234;28;20428;-77
2022/08/11 14:13:36;;;;;;;2.00;1.70;;;28.90;99.90;;;;;;5052829;28;20929;-71
2022/08/11 14:13:41;;;;;;;5.30;1.50;;;28.80;99.90;;;;;;5053044;28;20955;-77
2022/08/11 14:16:23;;;;;;;3.67;1.20;;;28.90;99.90;;;;;;5052094;28;20496;-70
2022/08/11 14:18:54;;;;;;;2.40;1.53;;;28.80;99.90;;;;;;5052782;28;20421;-70
2022/08/11 14:24:10;;;;;;;2.50;1.60;;;28.50;99.90;;;;;;5052961;28;20439;-76
2022/08/11 14:26:42;;;;;;;3.00;1.53;;;28.50;99.90;;;;;;5052076;28;20882;-75
2022/08/11 14:29:16;;;;;;;4.00;1.60;;;28.50;99.90;;;;;;5052646;28;20914;-70
2022/08/11 14:31:57;;;;;;;3.00;1.60;;;28.50;99.90;;;;;;5052864;28;20412;-71
2022/08/11 14:34:31;;;;;;;1.50;1.23;;;28.50;99.90;;;;;;5052874;28;20443;-70
2022/08/11 14:37:20;;;;;;;2.03;1.30;;;28.30;99.90;;;;;;5051847;28;20507;-76
2022/08/11 14:39:55;;;;;;;3.63;1.20;;;28.20;99.90;;;;;;5052235;28;20501;-71
2022/08/11 14:48:04;;;;;;;1.70;1.60;;;28.10;99.90;;;;;;5051726;28;20770;-76
2022/08/11 14:50:32;;;;;;;1.73;1.53;;;28.20;99.90;;;;;;5052656;28;20594;-70
2022/08/11 14:53:09;;;;;;;1.87;1.30;;;28.30;99.90;;;;;;5051528;28;20421;-76
2022/08/11 14:58:26;;;;;;;1.40;1.17;;;28.40;99.90;;;;;;5051688;28;20471;-70
2022/08/11 15:00:55;;;;;;;3.00;1.43;;;28.30;99.90;;;;;;5052464;28;20890;-70
2022/08/11 15:03:22;;;;;;;1.30;1.20;;;27.90;99.90;;;;;;5052281;28;20401;-76
2022/08/11 15:05:52;;;;;;;4.80;1.50;;;27.80;99.90;;;;;;5052368;28;20416;-76
2022/08/11 15:08:19;;;;;;;2.47;1.70;;;27.80;99.90;;;;;;5051731;28;20425;-76
2022/08/11 15:10:47;;;;;;;4.40;1.27;;;27.70;99.90;;;;;;5052531;28;20457;-76
2022/08/11 15:13:17;;;;;;;1.77;1.10;;;27.60;99.90;;;;;;5054257;28;20405;-74
2022/08/11 15:18:29;;;;;;;1.37;1.27;;;27.60;99.90;;;;;;5056394;28;20415;-76
2022/08/11 15:37:45;;;;;;;1.63;1.30;;;27.30;99.90;;;;;;5055249;28;20513;-76
2022/08/11 15:46:31;;;;;;;2.30;1.50;;;27.20;99.90;;;;;;5055341;28;20551;-76
2022/08/11 15:49:07;;;;;;;3.63;1.50;;;27.10;99.90;;;;;;5055036;28;20426;-75
2022/08/11 15:51:41;;;;;;;1.40;1.20;;;27.00;99.90;;;;;;5053954;28;20417;-76
2022/08/11 15:54:11;;;;;;;5.20;1.60;;;26.90;99.90;;;;;;5055486;28;20408;-76
2022/08/11 15:56:42;;;;;;;1.70;1.60;;;27.00;99.90;;;;;;5054747;28;20750;-76
2022/08/11 16:04:39;;;;;;;2.20;1.97;;;27.00;99.90;;;;;;5055226;28;20425;-76
2022/08/11 16:07:06;;;;;;;1.87;1.43;;;26.90;99.90;;;;;;5054407;28;20436;-76
2022/08/11 16:09:36;;;;;;;5.30;1.30;;;26.80;99.90;;;;;;5054510;28;20464;-76
2022/08/11 16:12:05;;;;;;;1.57;1.40;;;26.70;99.90;;;;;;5055044;28;20394;-77
2022/08/11 16:17:25;;;;;;;1.33;1.23;;;26.60;99.90;;;;;;5054543;28;20786;-70
2022/08/11 16:19:54;;;;;;;1.40;1.30;;;26.50;99.90;;;;;;5054995;28;20397;-76
2022/08/11 16:22:33;;;;;;;2.40;1.40;;;26.40;99.90;;;;;;5054938;28;20897;-76
2022/08/11 16:25:00;;;;;;;1.53;1.10;;;26.40;99.90;;;;;;5054450;28;20467;-77
2022/08/11 16:27:26;;;;;;;1.90;1.23;;;26.20;99.90;;;;;;5053658;28;20516;-76
2022/08/11 16:29:54;;;;;;;4.13;2.17;;;26.20;99.90;;;;;;5054653;28;20530;-75
2022/08/11 16:32:22;;;;;;;22.97;2.90;;;26.20;99.90;;;;;;5054790;28;20385;-69
2022/08/11 16:40:31;;;;;;;2.87;1.33;;;26.10;99.90;;;;;;5054685;28;20920;-73
2022/08/11 16:48:34;;;;;;;2.07;1.67;;;25.60;99.90;;;;;;5054328;28;20423;-77
2022/08/11 16:51:00;;;;;;;1.70;1.50;;;25.70;99.90;;;;;;5054325;28;20453;-77
2022/08/11 16:53:28;;;;;;;2.30;1.90;;;25.50;99.90;;;;;;5054316;28;20393;-69
2022/08/11 16:55:55;;;;;;;2.83;1.27;;;25.30;99.90;;;;;;5054071;28;20174;-72
2022/08/11 17:01:10;;;;;;;1.70;1.60;;;25.10;99.90;;;;;;5054545;28;20805;-75
2022/08/11 17:14:53;;;;;;;2.33;2.13;;;24.70;99.90;;;;;;5054137;28;20476;-77
2022/08/11 17:17:46;;;;;;;2.10;1.43;;;24.60;99.90;;;;;;5053223;28;20390;-74
2022/08/11 17:20:14;;;;;;;1.60;1.50;;;24.50;99.90;;;;;;5051035;28;20413;-77
2022/08/11 17:25:31;;;;;;;7.20;1.60;;;24.40;99.90;;;;;;5053790;28;20388;-73
2022/08/11 17:27:59;;;;;;;8.70;2.00;;;24.30;99.90;;;;;;5053009;28;20499;-75
2022/08/11 17:35:27;;;;;;;1.60;1.50;;;24.30;99.90;;;;;;5053530;28;20444;-73
2022/08/11 17:36:00;;;;;;;1.67;1.17;;;24.30;99.90;;;;;;5052824;28;20440;-76
2022/08/11 17:38:27;;;;;;;2.13;1.50;;;24.20;99.90;;;;;;5052685;28;20417;-73
2022/08/11 17:49:18;;;;;;;1.60;1.50;;;24.00;99.90;;;;;;5053186;28;20523;-76
2022/08/11 18:00:03;;;;;;;3.00;2.23;;;23.50;99.90;;;;;;5053226;28;20408;-76
2022/08/11 18:05:17;;;;;;;2.57;1.90;;;23.30;99.90;;;;;;5053244;28;20762;-76
